Kingston, New Mexico
Current Conditions -  °F | °C
As of 4:53 AM on Friday 24 Oct 2014 (Local Time) from KTCS Reporting Station
Clear Clear  
Wind Chill: 54°   Ceiling: Unl
Heat Index: 54°   Visibility: 10mi
Dew Point: 45°   Wind: 3mph
Humidity: 72%   Direction: 280°W
Pressure: 30.24"   Gusts: NA
Location:  32.8972°N, 107.644°W
Report Text: KTCS 241053Z AUTO 28003KT 10SM CLR 12/07 A3024 RMK AO2 SLP174 T01220072 TSNO
Loading
Personal Weather Stations






























Interactive Weather Map New forecast layout! Learn more

10-Day Weather Forecast

Advertisements
Track Severe Weather on mobile